NCAR-RAP Real-Time Weather Data

Output produced by METARs form (17 December 2018  08:10 UTC)
found at http://weather.rap.ucar.edu/surface/
 
RJTI 170700Z VRB02KT 9999 FEW015 10/06 Q1003
RJTI 170600Z 15005KT 9999 FEW020 10/04 Q1003
RJTI 170500Z 13005KT 080V160 9999 FEW025 11/05 Q1002
RJTI 170400Z 06004KT 350V150 9999 FEW025 10/03 Q1002
RJTI 170300Z 33003KT 270V050 8000 FEW010 SCT080 BKN100 08/04 Q1003
RJTI 170200Z 34004KT 270V090 7000 FEW010 BKN070 BKN100 06/04 Q1005
RJTI 170100Z 35004KT 300V050 5000 -RA BR FEW010 OVC080 06/05 Q1007
RJTI 170036Z VRB02KT 4000 -RA BR FEW010 SCT040 OVC080 06/05 Q1007 RMK 1CU010 4SC040 8AS080 A2976
RJTI 170024Z 06003KT 4000 RA BR FEW010 SCT040 OVC070 06/05 Q1007 RMK 1CU010 4SC040 8AS070 A2976
RJTI 170000Z VRB01KT 5000 -RA BR FEW010 SCT040 OVC070 06/04 Q1008
RJTI 162330Z VRB01KT 6000 -RA FEW010 SCT040 OVC070 06/04 Q1008
RJTI 160700Z 33003KT 250V020 9999 FEW025 BKN150 BKN/// 05/M01 Q1021
RJTI 160600Z 05003KT 280V090 9999 -RA FEW025 BKN050 05/M00 Q1021
RJTI 160500Z 01006KT 270V050 9999 -RA FEW025 SCT040 BKN045 05/M02 Q1022
RJTI 160400Z VRB03KT 9999 FEW030 BKN045 05/M04 Q1022
RJTI 160300Z 34005KT 240V030 9999 FEW030 BKN060 06/M04 Q1023
RJTI 160200Z 01004KT 260V070 9999 FEW030 BKN060 BKN160 05/M04 Q1024
RJTI 160100Z VRB03KT 9999 FEW030 BKN060 BKN/// 05/M03 Q1025
RJTI 160000Z VRB03KT 9999 FEW030 BKN050 03/M04 Q1026
RJTI 152330Z VRB02KT 9999 FEW030 BKN050 03/M03 Q1026
RJTI 150700Z 33010KT 230V030 9999 FEW030 09/M07 Q1025
RJTI 150600Z 34010G20KT 260V020 9999 FEW030 09/M07 Q1024
RJTI 150500Z 35011G22KT 290V040 9999 FEW030 10/M07 Q1024
RJTI 150400Z 35009G21KT 300V030 9999 FEW030 09/M08 Q1024
RJTI 150300Z 33010G22KT 270V030 9999 FEW030 09/M07 Q1025
RJTI 150200Z 31007KT 270V010 9999 FEW030 08/M08 Q1025
RJTI 150100Z 33010G21KT 250V010 9999 FEW030 08/M08 Q1026
RJTI 150000Z 36006KT 300V020 9999 FEW050 07/M07 Q1026
RJTI 142330Z 06006KT 020V120 CAVOK 05/M04 Q1026